createdAt,value
2022-12-05T00:00:55.224Z,21.76
2022-12-05T00:01:59.511Z,21.78
2022-12-05T00:03:03.792Z,21.79
2022-12-05T00:04:07.916Z,21.78
2022-12-05T00:05:12.361Z,21.77
2022-12-05T00:06:16.450Z,21.78
2022-12-05T00:07:20.541Z,21.77
2022-12-05T00:08:24.601Z,21.74
2022-12-05T00:09:28.668Z,21.75
2022-12-05T00:10:32.737Z,21.73
2022-12-05T00:11:36.924Z,21.73
2022-12-05T00:12:40.995Z,21.76
2022-12-05T00:13:45.062Z,21.74
2022-12-05T00:14:49.167Z,21.75
2022-12-05T00:15:53.231Z,21.71
2022-12-05T00:16:57.343Z,21.74
2022-12-05T00:18:01.624Z,21.72
2022-12-05T00:19:05.690Z,21.73
2022-12-05T00:20:09.770Z,21.69
2022-12-05T00:21:13.899Z,21.69
2022-12-05T00:22:17.981Z,21.72
2022-12-05T00:23:22.046Z,21.69
2022-12-05T00:24:26.117Z,21.72
2022-12-05T00:25:30.208Z,21.69
2022-12-05T00:26:34.269Z,21.7
2022-12-05T00:27:38.344Z,21.67
2022-12-05T00:28:42.412Z,21.7
2022-12-05T00:29:46.624Z,21.7
2022-12-05T00:30:50.702Z,21.66
2022-12-05T00:31:54.797Z,21.69
2022-12-05T00:32:59.059Z,21.66
2022-12-05T00:34:03.129Z,21.68
2022-12-05T00:35:07.212Z,21.65
2022-12-05T00:36:11.316Z,21.67
2022-12-05T00:37:15.390Z,21.67
2022-12-05T00:38:19.475Z,21.65
2022-12-05T00:39:23.541Z,21.67
2022-12-05T00:40:27.594Z,21.67
2022-12-05T00:41:31.666Z,21.66
2022-12-05T00:42:35.744Z,21.66
2022-12-05T00:43:39.838Z,21.65
2022-12-05T00:44:43.909Z,21.63
2022-12-05T00:45:48.068Z,21.64
2022-12-05T00:46:52.294Z,21.6
2022-12-05T00:47:56.365Z,21.64
2022-12-05T00:49:00.454Z,21.64
2022-12-05T00:50:04.519Z,21.6
2022-12-05T00:51:08.574Z,21.63
2022-12-05T00:52:12.670Z,21.59
2022-12-05T00:53:16.748Z,21.62
2022-12-05T00:54:20.846Z,21.62
2022-12-05T00:55:24.926Z,21.59
2022-12-05T00:56:28.983Z,21.61
2022-12-05T00:57:33.072Z,21.58
2022-12-05T00:58:37.153Z,21.58
2022-12-05T00:59:41.223Z,21.57
2022-12-05T01:00:45.362Z,21.58
2022-12-05T01:01:49.621Z,21.57
2022-12-05T01:02:54.077Z,21.57
2022-12-05T01:03:58.307Z,21.59
2022-12-05T01:05:02.388Z,21.59
2022-12-05T01:06:06.512Z,21.54
2022-12-05T01:07:10.591Z,21.55
2022-12-05T01:08:14.762Z,21.54
2022-12-05T01:09:19.159Z,21.57
2022-12-05T01:10:23.241Z,21.57
2022-12-05T01:11:27.326Z,21.56
2022-12-05T01:12:31.394Z,21.52
2022-12-05T01:13:35.458Z,21.55
2022-12-05T01:14:39.517Z,21.55
2022-12-05T01:15:43.599Z,21.55
2022-12-05T01:16:47.808Z,21.54
2022-12-05T01:17:52.099Z,21.55
2022-12-05T01:18:56.158Z,21.53
2022-12-05T01:20:00.390Z,21.53
2022-12-05T01:21:04.545Z,21.56
2022-12-05T01:22:08.693Z,21.55
2022-12-05T01:23:12.779Z,21.54
2022-12-05T01:24:16.842Z,21.54
2022-12-05T01:25:20.914Z,21.55
2022-12-05T01:26:24.991Z,21.53
2022-12-05T01:27:29.090Z,21.52
2022-12-05T01:28:33.241Z,21.51
2022-12-05T01:29:37.494Z,21.52
2022-12-05T01:30:41.567Z,21.51
2022-12-05T01:31:45.750Z,21.5
2022-12-05T01:32:50.143Z,21.49
2022-12-05T01:33:54.224Z,21.48
2022-12-05T01:34:58.289Z,21.44
2022-12-05T01:36:02.372Z,21.44
2022-12-05T01:37:06.529Z,21.43
2022-12-05T01:38:10.617Z,21.43
2022-12-05T01:39:14.722Z,21.46
2022-12-05T01:40:18.804Z,21.45
2022-12-05T01:41:22.877Z,21.46
2022-12-05T01:42:26.953Z,21.45
2022-12-05T01:43:31.045Z,21.43
2022-12-05T01:44:35.109Z,21.41
2022-12-05T01:45:39.237Z,21.41
2022-12-05T01:46:43.519Z,21.4
2022-12-05T01:47:47.580Z,21.44
2022-12-05T01:48:51.655Z,21.41
2022-12-05T01:49:56.150Z,21.41
2022-12-05T01:51:01.499Z,21.41
2022-12-05T01:52:05.675Z,21.4
2022-12-05T01:53:09.743Z,21.44
2022-12-05T01:54:13.846Z,21.44
2022-12-05T01:55:17.926Z,21.42
2022-12-05T01:56:21.992Z,21.37
2022-12-05T01:57:26.070Z,21.37
2022-12-05T01:58:30.136Z,21.38
2022-12-05T01:59:34.218Z,21.39
2022-12-05T02:00:38.301Z,21.39
2022-12-05T02:01:42.422Z,21.4
2022-12-05T02:02:46.796Z,21.38
2022-12-05T02:03:51.103Z,21.35
2022-12-05T02:04:55.181Z,21.35
2022-12-05T02:05:59.244Z,21.34
2022-12-05T02:07:03.400Z,21.35
2022-12-05T02:08:07.529Z,21.37
2022-12-05T02:09:11.984Z,21.36
2022-12-05T02:10:16.073Z,21.32
2022-12-05T02:11:20.181Z,21.35
2022-12-05T02:12:24.356Z,21.31
2022-12-05T02:13:28.430Z,21.3
2022-12-05T02:14:32.488Z,21.34
2022-12-05T02:15:36.557Z,21.32
2022-12-05T02:16:40.709Z,21.31
2022-12-05T02:17:45.091Z,21.33
2022-12-05T02:18:49.171Z,21.3
2022-12-05T02:19:53.232Z,21.29
2022-12-05T02:20:57.689Z,21.31
2022-12-05T02:22:01.778Z,21.32
2022-12-05T02:23:05.859Z,21.28
2022-12-05T02:24:09.933Z,21.3
2022-12-05T02:25:14.022Z,21.3
2022-12-05T02:26:18.126Z,21.31
2022-12-05T02:27:22.213Z,21.3
2022-12-05T02:28:26.285Z,21.27
2022-12-05T02:29:30.441Z,21.26
2022-12-05T02:30:34.658Z,21.29
2022-12-05T02:31:38.796Z,21.27
2022-12-05T02:32:43.022Z,21.28
2022-12-05T02:33:47.075Z,21.29
2022-12-05T02:34:51.124Z,21.23
2022-12-05T02:35:55.173Z,21.26
2022-12-05T02:36:59.276Z,21.27
2022-12-05T02:38:03.354Z,21.26
2022-12-05T02:39:07.421Z,21.27
2022-12-05T02:40:11.468Z,21.24
2022-12-05T02:41:15.513Z,21.26
2022-12-05T02:42:19.595Z,21.26
2022-12-05T02:43:23.667Z,21.26
2022-12-05T02:44:27.872Z,21.22
2022-12-05T02:45:32.056Z,21.25
2022-12-05T02:46:36.289Z,21.24
2022-12-05T02:47:40.397Z,21.23
2022-12-05T02:48:44.468Z,21.2
2022-12-05T02:49:48.519Z,21.2
2022-12-05T02:50:52.574Z,21.21
2022-12-05T02:51:56.642Z,21.2
2022-12-05T02:53:00.714Z,21.19
2022-12-05T02:54:04.800Z,21.18
2022-12-05T02:55:08.887Z,21.2
2022-12-05T02:56:12.961Z,21.21
2022-12-05T02:57:17.023Z,21.21
2022-12-05T02:58:21.094Z,21.21
2022-12-05T02:59:25.178Z,21.2
2022-12-05T03:00:29.237Z,21.2
2022-12-05T03:01:33.347Z,21.2
2022-12-05T03:02:37.695Z,21.16
2022-12-05T03:03:41.771Z,21.19
2022-12-05T03:04:45.918Z,21.17
2022-12-05T03:05:50.074Z,21.17
2022-12-05T03:06:54.157Z,21.18
2022-12-05T03:07:58.253Z,21.18
2022-12-05T03:09:02.654Z,21.16
2022-12-05T03:10:06.735Z,21.17
2022-12-05T03:11:10.810Z,21.14
2022-12-05T03:12:14.871Z,21.17
2022-12-05T03:13:18.924Z,21.19
2022-12-05T03:14:22.984Z,21.2
2022-12-05T03:15:27.063Z,21.22
2022-12-05T03:16:31.186Z,21.24
2022-12-05T03:17:35.521Z,21.24
2022-12-05T03:18:39.589Z,21.3
2022-12-05T03:19:43.677Z,21.32
2022-12-05T03:20:47.743Z,21.32
2022-12-05T03:21:51.803Z,21.38
2022-12-05T03:22:55.867Z,21.4
2022-12-05T03:23:59.914Z,21.41
2022-12-05T03:25:03.997Z,21.42
2022-12-05T03:26:08.096Z,21.47
2022-12-05T03:27:12.169Z,21.48
2022-12-05T03:28:16.241Z,21.53
2022-12-05T03:29:20.321Z,21.53
2022-12-05T03:30:24.465Z,21.58
2022-12-05T03:31:28.677Z,21.6
2022-12-05T03:32:32.756Z,21.62
2022-12-05T03:33:36.818Z,21.61
2022-12-05T03:34:40.910Z,21.67
2022-12-05T03:35:44.975Z,21.7
2022-12-05T03:36:49.043Z,21.72
2022-12-05T03:37:53.100Z,21.75
2022-12-05T03:38:57.152Z,21.75
2022-12-05T03:40:01.227Z,21.79
2022-12-05T03:41:05.298Z,21.81
2022-12-05T03:42:09.346Z,21.81
2022-12-05T03:43:13.396Z,21.86
2022-12-05T03:44:17.445Z,21.86
2022-12-05T03:45:21.505Z,21.9
2022-12-05T03:46:25.625Z,21.91
2022-12-05T03:47:30.034Z,21.89
2022-12-05T03:48:34.134Z,21.97
2022-12-05T03:49:38.206Z,21.94
2022-12-05T03:50:42.285Z,21.97
2022-12-05T03:51:46.346Z,21.98
2022-12-05T03:53:17.837Z,22.03
2022-12-05T03:54:24.029Z,21.99
2022-12-05T03:55:28.129Z,22.02
2022-12-05T03:56:32.200Z,22.03
2022-12-05T03:57:36.257Z,22.06
2022-12-05T03:58:40.360Z,22.08
2022-12-05T03:59:44.450Z,22.09
2022-12-05T04:00:48.587Z,22.06
2022-12-05T04:01:52.709Z,22.12
2022-12-05T04:02:57.045Z,22.14
2022-12-05T04:04:01.296Z,22.16
2022-12-05T04:05:05.372Z,22.15
2022-12-05T04:06:09.473Z,22.18
2022-12-05T04:07:13.542Z,22.17
2022-12-05T04:08:17.664Z,22.18
2022-12-05T04:09:22.082Z,22.18
2022-12-05T04:10:26.144Z,22.16
2022-12-05T04:11:30.245Z,22.2
2022-12-05T04:12:34.308Z,22.2
2022-12-05T04:13:38.370Z,22.17
2022-12-05T04:14:42.566Z,22.13
2022-12-05T04:15:46.628Z,22.1
2022-12-05T04:16:50.941Z,22.09
2022-12-05T04:17:55.106Z,22.12
2022-12-05T04:18:59.170Z,22.1
2022-12-05T04:20:03.242Z,22.12
2022-12-05T04:21:07.321Z,22.12
2022-12-05T04:22:11.401Z,22.12
2022-12-05T04:23:15.477Z,22.11
2022-12-05T04:24:19.531Z,22.1
2022-12-05T04:25:23.623Z,22.16
2022-12-05T04:26:27.691Z,22.19
2022-12-05T04:27:31.779Z,22.17
2022-12-05T04:28:35.852Z,22.22
2022-12-05T04:29:39.949Z,22.22
2022-12-05T04:30:44.120Z,22.2
2022-12-05T04:31:48.408Z,22.24
2022-12-05T04:32:52.503Z,22.24
2022-12-05T04:33:56.553Z,22.26
2022-12-05T04:35:00.625Z,22.32
2022-12-05T04:36:04.737Z,22.3
2022-12-05T04:37:08.798Z,22.3
2022-12-05T04:38:12.874Z,22.34
2022-12-05T04:39:18.293Z,22.34
2022-12-05T04:40:22.572Z,22.31
2022-12-05T04:41:26.653Z,22.33
2022-12-05T04:42:30.743Z,22.31
2022-12-05T04:43:34.803Z,22.27
2022-12-05T04:44:38.905Z,22.28
2022-12-05T04:45:42.964Z,22.27
2022-12-05T04:46:47.102Z,22.22
2022-12-05T04:47:51.485Z,22.25
2022-12-05T04:48:55.534Z,22.23
2022-12-05T04:49:59.879Z,22.25
2022-12-05T04:51:04.094Z,22.26
2022-12-05T04:52:08.159Z,22.25
2022-12-05T04:53:12.239Z,22.23
2022-12-05T04:54:16.301Z,22.27
2022-12-05T04:55:20.344Z,22.33
2022-12-05T04:56:24.401Z,22.33
2022-12-05T04:57:28.458Z,22.35
2022-12-05T04:58:32.574Z,22.34
2022-12-05T04:59:36.645Z,22.35
2022-12-05T05:00:40.710Z,22.4
2022-12-05T05:01:44.959Z,22.35
2022-12-05T05:02:49.347Z,22.39
2022-12-05T05:03:53.697Z,22.35
2022-12-05T05:04:57.765Z,22.42
2022-12-05T05:06:01.832Z,22.4
2022-12-05T05:07:05.894Z,22.35
2022-12-05T05:08:10.028Z,22.35
2022-12-05T05:09:14.341Z,22.34
2022-12-05T05:10:18.420Z,22.3
2022-12-05T05:11:22.514Z,22.27
2022-12-05T05:12:26.587Z,22.27
2022-12-05T05:13:30.673Z,22.28
2022-12-05T05:14:34.735Z,22.25
2022-12-05T05:15:38.881Z,22.26
2022-12-05T05:16:43.124Z,22.25
2022-12-05T05:17:47.189Z,22.23
2022-12-05T05:18:51.331Z,22.15
2022-12-05T05:19:55.666Z,22.2
2022-12-05T05:21:00.458Z,22.19
2022-12-05T05:22:04.538Z,22.2
2022-12-05T05:23:08.608Z,22.2
2022-12-05T05:24:12.702Z,22.17
2022-12-05T05:25:16.782Z,22.2
2022-12-05T05:26:20.837Z,22.23
2022-12-05T05:27:24.930Z,22.25
2022-12-05T05:28:28.993Z,22.25
2022-12-05T05:29:33.097Z,22.24
2022-12-05T05:30:37.216Z,22.3
2022-12-05T05:31:41.619Z,22.32
2022-12-05T05:32:45.960Z,22.35
2022-12-05T05:33:50.022Z,22.37
2022-12-05T05:34:54.138Z,22.38
2022-12-05T05:35:58.214Z,22.33
2022-12-05T05:37:02.353Z,22.33
2022-12-05T05:38:06.433Z,22.38
2022-12-05T05:39:10.513Z,22.41
2022-12-05T05:40:14.598Z,22.4
2022-12-05T05:41:18.695Z,22.39
2022-12-05T05:42:22.768Z,22.37
2022-12-05T05:43:26.828Z,22.38
2022-12-05T05:44:30.916Z,22.35
2022-12-05T05:45:34.990Z,22.34
2022-12-05T05:46:39.138Z,22.33
2022-12-05T05:47:43.461Z,22.3
2022-12-05T05:48:47.553Z,22.31
2022-12-05T05:49:51.612Z,22.31
2022-12-05T05:50:55.711Z,22.23
2022-12-05T05:51:59.792Z,22.23
2022-12-05T05:53:03.913Z,22.25
2022-12-05T05:54:07.963Z,22.22
2022-12-05T05:55:12.037Z,22.25
2022-12-05T05:56:21.120Z,22.25
2022-12-05T05:57:25.600Z,22.18
2022-12-05T05:58:29.685Z,22.17
2022-12-05T05:59:33.746Z,22.2
2022-12-05T06:00:37.810Z,22.18
2022-12-05T06:01:41.907Z,22.17
2022-12-05T06:02:46.052Z,22.12
2022-12-05T06:03:50.938Z,22.13
2022-12-05T06:04:55.563Z,22.09
2022-12-05T06:05:59.645Z,22.12
2022-12-05T06:07:03.745Z,22.13
2022-12-05T06:08:07.950Z,22.11
2022-12-05T06:09:12.512Z,22.08
2022-12-05T06:10:16.617Z,22.08
2022-12-05T06:11:25.173Z,22.03
2022-12-05T06:12:30.474Z,22.05
2022-12-05T06:13:34.552Z,22.04
2022-12-05T06:14:38.648Z,22.04
2022-12-05T06:15:42.718Z,21.99
2022-12-05T06:16:46.828Z,22.02
2022-12-05T06:17:51.084Z,22.01
2022-12-05T06:18:55.140Z,21.96
2022-12-05T06:19:59.475Z,21.98
2022-12-05T06:21:04.141Z,21.95
2022-12-05T06:22:08.214Z,21.97
2022-12-05T06:23:12.376Z,21.87
2022-12-05T06:24:16.437Z,21.95
2022-12-05T06:25:20.543Z,21.95
2022-12-05T06:26:24.626Z,21.94
2022-12-05T06:27:28.714Z,21.93
2022-12-05T06:28:32.823Z,21.9
2022-12-05T06:29:36.948Z,21.92
2022-12-05T06:30:41.008Z,21.91
2022-12-05T06:31:45.151Z,21.88
2022-12-05T06:32:49.529Z,21.87
2022-12-05T06:33:53.641Z,21.89
2022-12-05T06:34:57.731Z,21.84
2022-12-05T06:36:01.812Z,21.87
2022-12-05T06:37:05.878Z,21.86
2022-12-05T06:38:09.961Z,21.85
2022-12-05T06:39:14.053Z,21.81
2022-12-05T06:40:18.125Z,21.84
2022-12-05T06:41:22.214Z,21.79
2022-12-05T06:42:26.280Z,21.82
2022-12-05T06:43:30.362Z,21.77
2022-12-05T06:44:34.465Z,21.8
2022-12-05T06:45:38.597Z,21.79
2022-12-05T06:46:42.837Z,21.75
2022-12-05T06:47:46.908Z,21.79
2022-12-05T06:48:50.962Z,21.74
2022-12-05T06:49:55.211Z,21.76
2022-12-05T06:51:00.398Z,21.73
2022-12-05T06:52:04.513Z,21.75
2022-12-05T06:53:08.642Z,21.75
2022-12-05T06:54:12.725Z,21.71
2022-12-05T06:55:16.814Z,21.75
2022-12-05T06:56:20.900Z,21.74
2022-12-05T06:57:24.955Z,21.73
2022-12-05T06:58:29.042Z,21.73
2022-12-05T06:59:33.102Z,21.69
2022-12-05T07:00:37.283Z,21.72
2022-12-05T07:01:42.037Z,21.71
2022-12-05T07:02:46.773Z,21.71
2022-12-05T07:03:51.173Z,21.7
2022-12-05T07:04:55.252Z,21.7
2022-12-05T07:05:59.344Z,21.66
2022-12-05T07:07:03.406Z,21.69
2022-12-05T07:08:07.605Z,21.68
2022-12-05T07:09:11.862Z,21.64
2022-12-05T07:10:15.923Z,21.66
2022-12-05T07:11:20.016Z,21.62
2022-12-05T07:12:24.074Z,21.62
2022-12-05T07:13:28.181Z,21.43
2022-12-05T07:14:46.766Z,21.6
2022-12-05T07:15:53.323Z,21.6
2022-12-05T07:16:57.500Z,21.63
2022-12-05T07:18:01.853Z,21.63
2022-12-05T07:19:05.932Z,21.59
2022-12-05T07:20:10.049Z,21.62
2022-12-05T07:21:14.611Z,21.6
2022-12-05T07:22:19.137Z,21.6
2022-12-05T07:23:23.222Z,21.31
2022-12-05T07:24:27.279Z,21.59
2022-12-05T07:25:31.375Z,21.55
2022-12-05T07:26:35.590Z,21.57
2022-12-05T07:27:39.683Z,21.53
2022-12-05T07:28:43.746Z,21.53
2022-12-05T07:29:47.837Z,21.56
2022-12-05T07:30:51.891Z,21.56
2022-12-05T07:31:56.053Z,21.55
2022-12-05T07:33:00.367Z,21.5
2022-12-05T07:34:04.460Z,21.51
2022-12-05T07:35:08.532Z,21.54
2022-12-05T07:36:12.723Z,21.51
2022-12-05T07:37:16.884Z,21.49
2022-12-05T07:38:20.969Z,21.48
2022-12-05T07:39:25.040Z,21.51
2022-12-05T07:40:29.134Z,21.51
2022-12-05T07:41:33.247Z,21.46
2022-12-05T07:42:37.337Z,21.45
2022-12-05T07:43:41.413Z,21.48
2022-12-05T07:44:45.507Z,21.49
2022-12-05T07:45:49.676Z,21.48
2022-12-05T07:46:53.899Z,21.47
2022-12-05T07:47:58.097Z,21.47
2022-12-05T07:49:02.540Z,21.43
2022-12-05T07:50:06.618Z,21.43
2022-12-05T07:51:10.687Z,21.46
2022-12-05T07:52:14.790Z,21.46
2022-12-05T07:53:18.903Z,21.46
2022-12-05T07:54:22.985Z,21.45
2022-12-05T07:55:27.083Z,21.46
2022-12-05T07:56:31.144Z,21.41
2022-12-05T07:57:35.223Z,21.4
2022-12-05T07:58:39.303Z,21.45
2022-12-05T07:59:43.399Z,21.45
2022-12-05T08:00:47.524Z,21.45
2022-12-05T08:01:51.896Z,21.45
2022-12-05T08:02:56.421Z,21.41
2022-12-05T08:04:00.748Z,21.43
2022-12-05T08:05:04.836Z,21.43
2022-12-05T08:06:08.904Z,21.4
2022-12-05T08:07:13.043Z,21.4
2022-12-05T08:08:17.296Z,21.4
2022-12-05T08:09:21.691Z,21.42
2022-12-05T08:10:25.807Z,21.39
2022-12-05T08:11:29.957Z,21.42
2022-12-05T08:12:34.022Z,21.38
2022-12-05T08:13:38.100Z,21.37
2022-12-05T08:14:42.200Z,21.4
2022-12-05T08:15:46.311Z,21.36
2022-12-05T08:16:50.468Z,21.39
2022-12-05T08:17:54.812Z,21.39
2022-12-05T08:18:58.923Z,21.39
2022-12-05T08:20:03.011Z,21.36
2022-12-05T08:21:07.085Z,21.39
2022-12-05T08:22:11.197Z,21.39
2022-12-05T08:23:15.256Z,21.38
2022-12-05T08:24:19.332Z,21.39
2022-12-05T08:25:23.421Z,21.38
2022-12-05T08:26:27.510Z,21.37
2022-12-05T08:27:31.578Z,21.36
2022-12-05T08:28:35.633Z,21.36
2022-12-05T08:29:39.711Z,21.36
2022-12-05T08:30:43.807Z,21.35
2022-12-05T08:31:48.364Z,21.32
2022-12-05T08:32:52.431Z,21.34
2022-12-05T08:33:58.973Z,21.23
2022-12-05T08:35:03.509Z,21.33
2022-12-05T08:36:07.578Z,21.34
2022-12-05T08:37:11.667Z,21.33
2022-12-05T08:38:15.767Z,21.32
2022-12-05T08:39:19.846Z,21.31
2022-12-05T08:40:23.894Z,21.31
2022-12-05T08:41:28.151Z,21.27
2022-12-05T08:42:32.574Z,21.26
2022-12-05T08:43:36.650Z,21.29
2022-12-05T08:44:40.763Z,21.26
2022-12-05T08:45:44.880Z,21.29
2022-12-05T08:46:49.142Z,21.29
2022-12-05T08:47:53.248Z,21.29
2022-12-05T08:48:57.301Z,21.26
2022-12-05T08:50:01.430Z,21.27
2022-12-05T08:51:05.521Z,21.28
2022-12-05T08:52:09.606Z,21.28
2022-12-05T08:53:13.672Z,21.27
2022-12-05T08:54:17.798Z,21.26
2022-12-05T08:55:21.877Z,21.26
2022-12-05T08:56:27.344Z,21.27
2022-12-05T08:57:31.530Z,21.27
2022-12-05T08:58:35.611Z,21.23
2022-12-05T08:59:39.678Z,21.26
2022-12-05T09:00:43.745Z,21.26
2022-12-05T09:01:47.858Z,21.24
2022-12-05T09:02:52.174Z,21.2
2022-12-05T09:03:56.531Z,21.25
2022-12-05T09:05:13.437Z,21.24
2022-12-05T09:06:32.351Z,21.2
2022-12-05T09:07:36.480Z,21.19
2022-12-05T09:08:40.810Z,21.19
2022-12-05T09:09:44.882Z,21.18
2022-12-05T09:10:48.957Z,21.18
2022-12-05T09:11:53.059Z,21.18
2022-12-05T09:12:57.127Z,21.17
2022-12-05T09:14:01.196Z,21.21
2022-12-05T09:15:05.283Z,21.2
2022-12-05T09:16:09.418Z,21.16
2022-12-05T09:17:13.844Z,21.19
2022-12-05T09:18:17.928Z,21.18
2022-12-05T09:19:22.017Z,21.18
2022-12-05T09:20:26.123Z,21.19
2022-12-05T09:21:30.216Z,21.14
2022-12-05T09:22:34.328Z,21.14
2022-12-05T09:23:38.417Z,21.17
2022-12-05T09:24:42.518Z,21.17
2022-12-05T09:25:46.622Z,21.16
2022-12-05T09:26:50.707Z,21.16
2022-12-05T09:27:54.777Z,21.16
2022-12-05T09:28:58.853Z,21.15
2022-12-05T09:30:03.344Z,21.16
2022-12-05T09:31:07.483Z,21.15
2022-12-05T09:32:11.828Z,21.14
2022-12-05T09:33:15.887Z,21.13
2022-12-05T09:34:19.987Z,21.13
2022-12-05T09:35:24.086Z,21.13
2022-12-05T09:36:28.199Z,21.12
2022-12-05T09:37:40.157Z,21.04
2022-12-05T09:38:44.383Z,21.13
2022-12-05T09:39:48.466Z,21.09
2022-12-05T09:40:56.365Z,21.14
2022-12-05T09:42:02.359Z,21.15
2022-12-05T09:43:06.484Z,21.16
2022-12-05T09:44:10.612Z,21.13
2022-12-05T09:45:14.690Z,21.16
2022-12-05T09:46:18.793Z,21.21
2022-12-05T09:47:23.138Z,21.25
2022-12-05T09:48:27.428Z,21.26
2022-12-05T09:49:31.546Z,21.29
2022-12-05T09:50:35.642Z,21.31
2022-12-05T09:51:39.764Z,21.31
2022-12-05T09:52:43.851Z,21.33
2022-12-05T09:53:47.942Z,21.38
2022-12-05T09:54:52.050Z,21.09
2022-12-05T09:55:56.166Z,21.43
2022-12-05T09:57:00.284Z,21.45
2022-12-05T09:58:04.375Z,21.43
2022-12-05T09:59:08.560Z,21.5
2022-12-05T10:00:12.655Z,21.21
2022-12-05T10:01:16.873Z,21.53
2022-12-05T10:02:23.843Z,21.57
2022-12-05T10:03:27.966Z,21.56
2022-12-05T10:04:32.172Z,21.56
2022-12-05T10:05:36.560Z,21.63
2022-12-05T10:06:40.679Z,21.64
